createdAt,value
2022-10-28T00:01:22.084Z,22.80
2022-10-28T00:03:53.713Z,22.90
2022-10-28T00:06:25.551Z,22.40
2022-10-28T00:08:54.175Z,22.30
2022-10-28T00:11:24.751Z,22.90
2022-10-28T00:13:54.858Z,22.40
2022-10-28T00:16:25.691Z,22.50
2022-10-28T00:18:55.874Z,22.70
2022-10-28T00:21:26.745Z,22.30
2022-10-28T00:23:55.081Z,22.30
2022-10-28T00:26:25.417Z,22.40
2022-10-28T00:28:56.076Z,22.90
2022-10-28T00:31:26.825Z,22.80
2022-10-28T00:33:56.908Z,22.30
2022-10-28T00:36:27.212Z,22.40
2022-10-28T00:38:57.224Z,22.60
2022-10-28T00:41:27.695Z,22.50
2022-10-28T00:43:58.024Z,22.30
2022-10-28T00:46:31.542Z,22.30
2022-10-28T00:49:05.352Z,22.40
2022-10-28T00:51:36.745Z,22.60
2022-10-28T00:54:06.524Z,22.60
2022-10-28T00:56:39.344Z,22.50
2022-10-28T00:59:16.662Z,22.80
2022-10-28T01:01:44.766Z,22.70
2022-10-28T01:04:14.749Z,22.50
2022-10-28T01:06:43.657Z,22.60
2022-10-28T01:09:11.564Z,22.50
2022-10-28T01:11:56.065Z,22.50
2022-10-28T01:14:43.339Z,22.40
2022-10-28T01:17:31.791Z,22.60
2022-10-28T01:21:05.281Z,22.30
2022-10-28T01:23:45.293Z,22.30
2022-10-28T01:26:47.618Z,22.40
2022-10-28T01:29:50.900Z,22.40
2022-10-28T01:32:32.496Z,22.50
2022-10-28T01:35:12.453Z,22.40
2022-10-28T01:37:49.531Z,22.10
2022-10-28T01:40:24.202Z,22.40
2022-10-28T01:43:00.272Z,22.50
2022-10-28T01:45:36.125Z,22.60
2022-10-28T01:48:10.677Z,22.50
2022-10-28T01:50:45.432Z,22.50
2022-10-28T01:53:18.431Z,22.50
2022-10-28T01:55:50.469Z,22.30
2022-10-28T01:58:22.877Z,22.40
2022-10-28T02:00:51.714Z,22.20
2022-10-28T02:03:21.571Z,22.40
2022-10-28T02:05:52.683Z,22.30
2022-10-28T02:08:44.673Z,22.30
2022-10-28T02:11:54.940Z,22.50
2022-10-28T02:14:37.234Z,22.70
2022-10-28T02:17:20.961Z,22.60
2022-10-28T02:19:55.594Z,22.20
2022-10-28T02:22:30.854Z,22.30
2022-10-28T02:25:08.883Z,22.30
2022-10-28T02:27:45.824Z,22.40
2022-10-28T02:30:19.639Z,22.10
2022-10-28T02:32:54.424Z,22.30
2022-10-28T02:35:31.768Z,22.50
2022-10-28T02:38:02.726Z,22.40
2022-10-28T02:40:34.301Z,22.30
2022-10-28T02:43:05.344Z,22.50
2022-10-28T02:45:39.450Z,22.40
2022-10-28T02:48:13.729Z,22.30
2022-10-28T02:50:49.180Z,22.20
2022-10-28T02:53:22.735Z,22.40
2022-10-28T02:55:54.872Z,22.40
2022-10-28T02:58:23.231Z,22.30
2022-10-28T03:00:52.107Z,22.20
2022-10-28T03:03:20.429Z,22.40
2022-10-28T03:05:49.664Z,22.40
2022-10-28T03:08:17.616Z,22.40
2022-10-28T03:10:45.579Z,22.40
2022-10-28T03:13:13.535Z,22.40
2022-10-28T03:15:41.522Z,22.30
2022-10-28T03:18:09.714Z,22.40
2022-10-28T03:20:37.997Z,22.20
2022-10-28T03:23:07.329Z,22.30
2022-10-28T03:25:35.333Z,22.30
2022-10-28T03:28:03.264Z,22.30
2022-10-28T03:30:31.178Z,22.30
2022-10-28T03:32:59.133Z,22.30
2022-10-28T03:35:27.118Z,22.30
2022-10-28T03:37:55.036Z,22.10
2022-10-28T03:40:24.349Z,22.20
2022-10-28T03:42:52.721Z,22.40
2022-10-28T03:45:20.951Z,22.30
2022-10-28T03:47:48.937Z,22.30
2022-10-28T03:50:17.069Z,22.20
2022-10-28T03:52:45.286Z,22.10
2022-10-28T03:55:13.298Z,22.40
2022-10-28T03:57:42.566Z,22.50
2022-10-28T04:00:11.937Z,22.40
2022-10-28T04:02:39.867Z,22.30
2022-10-28T04:05:08.772Z,22.30
2022-10-28T04:07:37.173Z,22.30
2022-10-28T04:10:05.788Z,22.30
2022-10-28T04:12:33.823Z,22.20
2022-10-28T04:15:03.096Z,22.60
2022-10-28T04:17:31.255Z,22.30
2022-10-28T04:19:59.180Z,22.40
2022-10-28T04:22:27.104Z,22.40
2022-10-28T04:24:55.417Z,22.20
2022-10-28T04:27:23.336Z,22.20
2022-10-28T04:29:51.300Z,22.30
2022-10-28T04:32:20.577Z,22.30
2022-10-28T04:34:48.555Z,22.20
2022-10-28T04:37:19.650Z,22.20
2022-10-28T04:39:48.568Z,22.40
2022-10-28T04:42:17.759Z,22.40
2022-10-28T04:44:45.768Z,22.20
2022-10-28T04:47:13.712Z,22.30
2022-10-28T04:49:43.014Z,22.20
2022-10-28T04:52:14.815Z,22.40
2022-10-28T04:54:43.797Z,22.40
2022-10-28T04:57:11.770Z,22.20
2022-10-28T04:59:39.741Z,22.20
2022-10-28T05:02:08.000Z,22.10
2022-10-28T05:04:36.045Z,22.40
2022-10-28T05:07:05.337Z,22.20
2022-10-28T05:09:33.284Z,22.30
2022-10-28T05:12:01.212Z,22.20
2022-10-28T05:14:29.259Z,22.40
2022-10-28T05:16:57.207Z,22.20
2022-10-28T05:19:25.285Z,22.20
2022-10-28T05:21:53.239Z,22.30
2022-10-28T05:24:22.536Z,22.20
2022-10-28T05:26:50.450Z,22.30
2022-10-28T05:29:19.445Z,22.20
2022-10-28T05:31:47.797Z,22.30
2022-10-28T05:34:15.739Z,22.20
2022-10-28T05:36:43.693Z,22.40
2022-10-28T05:39:12.677Z,22.40
2022-10-28T05:41:41.966Z,22.20
2022-10-28T05:44:10.064Z,22.30
2022-10-28T05:46:38.020Z,22.10
2022-10-28T05:49:06.223Z,22.30
2022-10-28T05:51:34.244Z,22.30
2022-10-28T05:54:02.177Z,22.20
2022-10-28T05:56:30.521Z,22.20
2022-10-28T05:58:59.940Z,22.20
2022-10-28T06:01:27.931Z,22.10
2022-10-28T06:03:55.943Z,22.20
2022-10-28T06:06:24.196Z,22.20
2022-10-28T06:08:52.110Z,22.50
2022-10-28T06:11:18.580Z,22.10
2022-10-28T06:13:46.574Z,22.40
2022-10-28T06:16:15.920Z,22.20
2022-10-28T06:18:43.891Z,22.10
2022-10-28T06:21:11.892Z,22.30
2022-10-28T06:23:39.917Z,22.20
2022-10-28T06:26:09.514Z,22.10
2022-10-28T06:28:37.453Z,22.10
2022-10-28T06:31:07.881Z,22.40
2022-10-28T06:33:37.187Z,22.30
2022-10-28T06:36:06.236Z,22.30
2022-10-28T06:38:34.261Z,22.30
2022-10-28T06:41:02.476Z,22.40
2022-10-28T06:43:30.449Z,22.10
2022-10-28T06:46:01.557Z,21.90
2022-10-28T06:48:31.170Z,22.10
2022-10-28T06:51:00.568Z,22.30
2022-10-28T06:53:28.479Z,22.20
2022-10-28T06:55:57.959Z,22.10
2022-10-28T06:58:27.094Z,22.40
2022-10-28T07:00:55.250Z,22.20
2022-10-28T07:03:23.379Z,22.20
2022-10-28T07:05:51.794Z,22.20
2022-10-28T07:08:21.104Z,22.30
2022-10-28T07:10:56.271Z,22.40
2022-10-28T07:13:24.384Z,22.40
2022-10-28T07:15:53.683Z,22.30
2022-10-28T07:18:23.463Z,22.20
2022-10-28T07:20:51.922Z,22.30
2022-10-28T07:23:21.443Z,22.30
2022-10-28T07:28:28.320Z,22.60
2022-10-28T07:30:56.419Z,22.40
2022-10-28T07:33:24.498Z,22.60
2022-10-28T07:35:52.437Z,22.40
2022-10-28T07:38:22.412Z,22.80
2022-10-28T07:40:50.424Z,22.40
2022-10-28T07:43:18.341Z,22.40
2022-10-28T07:45:46.639Z,22.40
2022-10-28T07:48:14.638Z,22.40
2022-10-28T07:50:42.976Z,22.50
2022-10-28T07:53:11.007Z,22.60
2022-10-28T07:55:40.344Z,22.80
2022-10-28T07:58:08.311Z,22.80
2022-10-28T08:00:36.255Z,22.40
2022-10-28T08:03:04.540Z,22.90
2022-10-28T08:05:32.506Z,22.90
2022-10-28T08:08:00.551Z,22.50
2022-10-28T08:10:28.661Z,22.90
2022-10-28T08:12:59.434Z,22.70
2022-10-28T08:15:28.791Z,22.30
2022-10-28T08:17:57.637Z,22.60
2022-10-28T08:20:25.846Z,22.60
2022-10-28T08:22:54.017Z,22.40
2022-10-28T08:25:22.176Z,22.50
2022-10-28T08:27:50.123Z,22.40
2022-10-28T08:30:19.392Z,22.70
2022-10-28T08:32:47.402Z,22.60
2022-10-28T08:35:15.593Z,22.40
2022-10-28T08:37:46.032Z,23.00
2022-10-28T08:40:14.561Z,22.40
2022-10-28T08:42:48.858Z,22.50
2022-10-28T08:45:26.912Z,22.90
2022-10-28T08:48:10.616Z,22.80
2022-10-28T08:50:49.220Z,22.90
2022-10-28T08:53:22.580Z,22.60
2022-10-28T08:55:53.580Z,22.60
2022-10-28T08:58:27.299Z,23.00
2022-10-28T09:00:59.767Z,22.40
2022-10-28T09:03:29.524Z,22.90
2022-10-28T09:06:04.074Z,22.80
2022-10-28T09:08:36.264Z,22.80
2022-10-28T09:11:39.174Z,23.00
2022-10-28T09:14:29.527Z,23.00
2022-10-28T09:17:10.609Z,23.10
2022-10-28T09:19:49.293Z,22.70
2022-10-28T09:22:25.075Z,23.30
2022-10-28T09:24:56.845Z,23.10
2022-10-28T09:27:41.172Z,23.10
2022-10-28T09:30:28.422Z,23.20
2022-10-28T09:33:12.609Z,23.20
2022-10-28T09:35:44.707Z,22.90
2022-10-28T09:38:27.291Z,23.00
2022-10-28T09:41:01.997Z,23.10
2022-10-28T09:43:35.125Z,23.00
2022-10-28T09:46:09.183Z,23.20
2022-10-28T09:48:40.796Z,23.20
2022-10-28T09:51:28.055Z,23.40
2022-10-28T09:53:59.174Z,23.20
2022-10-28T09:56:29.521Z,23.20
2022-10-28T09:59:01.325Z,23.40
2022-10-28T10:01:34.250Z,23.40
2022-10-28T10:04:06.243Z,23.20
2022-10-28T10:06:38.434Z,23.50
2022-10-28T10:09:06.724Z,23.50
2022-10-28T10:11:40.955Z,23.10
2022-10-28T10:14:13.815Z,23.60
2022-10-28T10:16:45.995Z,23.60
2022-10-28T10:19:15.395Z,23.70
2022-10-28T10:21:47.148Z,23.60
2022-10-28T10:24:33.298Z,23.50
2022-10-28T10:27:04.304Z,23.50
2022-10-28T10:29:33.118Z,23.80
2022-10-28T10:32:17.088Z,23.60
2022-10-28T10:35:00.391Z,23.70
2022-10-28T10:37:30.723Z,23.70
2022-10-28T10:40:21.411Z,23.70
2022-10-28T10:43:09.583Z,23.50
2022-10-28T10:45:38.221Z,23.60
2022-10-28T10:48:14.722Z,23.50
2022-10-28T10:50:46.367Z,23.60
2022-10-28T10:53:24.851Z,23.30
2022-10-28T10:55:58.127Z,23.40
2022-10-28T10:58:29.798Z,23.50
2022-10-28T11:01:01.464Z,23.50
2022-10-28T11:03:36.571Z,23.70
2022-10-28T11:06:22.989Z,23.70
2022-10-28T11:08:58.594Z,23.60
2022-10-28T11:11:35.451Z,23.80
2022-10-28T11:14:08.407Z,24.00
2022-10-28T11:16:49.339Z,24.00
2022-10-28T11:19:22.710Z,24.20
2022-10-28T11:22:10.935Z,24.10
2022-10-28T11:25:17.544Z,24.10
2022-10-28T11:28:01.507Z,24.10
2022-10-28T11:30:44.193Z,24.30
2022-10-28T11:33:31.450Z,24.20
2022-10-28T11:36:19.289Z,24.30
2022-10-28T11:39:08.883Z,24.30
2022-10-28T11:41:53.689Z,24.10
2022-10-28T11:44:36.476Z,24.20
2022-10-28T11:47:25.912Z,24.20
2022-10-28T11:50:21.501Z,24.10
2022-10-28T11:53:12.023Z,24.20
2022-10-28T11:55:48.918Z,24.30
2022-10-28T11:58:28.339Z,24.50
2022-10-28T12:01:10.548Z,24.30
2022-10-28T12:04:07.163Z,24.00
2022-10-28T12:07:02.707Z,24.10
2022-10-28T12:09:47.409Z,24.10
2022-10-28T12:12:28.467Z,24.20
2022-10-28T12:15:12.249Z,24.10
2022-10-28T12:17:49.171Z,24.20
2022-10-28T12:20:24.371Z,24.40
2022-10-28T12:22:56.634Z,24.30
2022-10-28T12:25:28.827Z,24.50
2022-10-28T12:28:02.243Z,24.50
2022-10-28T12:30:33.644Z,24.60
2022-10-28T12:33:10.962Z,24.40
2022-10-28T12:35:44.969Z,24.40
2022-10-28T12:38:19.722Z,24.60
2022-10-28T12:40:54.034Z,24.50
2022-10-28T12:43:29.988Z,24.40
2022-10-28T12:45:58.590Z,24.30
2022-10-28T12:48:33.648Z,24.20
2022-10-28T12:51:11.140Z,24.60
2022-10-28T12:53:50.967Z,24.30
2022-10-28T12:56:25.385Z,24.40
2022-10-28T12:59:05.147Z,24.50
2022-10-28T13:01:35.776Z,24.40
2022-10-28T13:04:04.266Z,24.60
2022-10-28T13:07:09.934Z,24.40
2022-10-28T13:09:58.021Z,24.30
2022-10-28T13:12:57.857Z,24.40
2022-10-28T13:15:53.456Z,24.60
2022-10-28T13:19:03.880Z,24.50
2022-10-28T13:22:02.506Z,24.30
2022-10-28T13:24:36.961Z,24.10
2022-10-28T13:27:07.090Z,24.20
2022-10-28T13:29:36.247Z,24.20
2022-10-28T13:32:05.919Z,24.40
2022-10-28T13:34:37.187Z,24.50
2022-10-28T13:37:08.377Z,24.70
2022-10-28T13:39:46.774Z,24.20
2022-10-28T13:42:47.737Z,24.30
2022-10-28T13:45:53.089Z,24.30
2022-10-28T13:48:47.886Z,24.20
2022-10-28T13:51:47.274Z,24.00
2022-10-28T13:54:32.435Z,24.30
2022-10-28T13:57:09.875Z,24.10
2022-10-28T13:59:51.787Z,24.30
2022-10-28T14:02:40.475Z,24.10
2022-10-28T14:05:12.327Z,24.10
2022-10-28T14:07:54.250Z,24.10
2022-10-28T14:10:28.127Z,24.30
2022-10-28T14:12:59.005Z,24.20
2022-10-28T14:15:30.486Z,24.10
2022-10-28T14:18:15.649Z,24.00
2022-10-28T14:20:58.993Z,24.00
2022-10-28T14:24:10.750Z,24.00
2022-10-28T14:27:48.240Z,23.90
2022-10-28T14:30:24.394Z,23.90
2022-10-28T14:33:31.128Z,24.00
2022-10-28T14:36:29.035Z,24.00
2022-10-28T14:39:34.089Z,23.90
2022-10-28T14:42:23.727Z,23.70
2022-10-28T14:45:14.343Z,23.80
2022-10-28T14:48:16.787Z,24.10
2022-10-28T14:50:47.874Z,23.90
2022-10-28T14:53:25.546Z,23.80
2022-10-28T14:56:00.930Z,23.90
2022-10-28T14:58:31.987Z,24.10
2022-10-28T15:01:27.178Z,23.90
2022-10-28T15:03:59.491Z,23.70
2022-10-28T15:06:36.107Z,23.70
2022-10-28T15:09:20.714Z,23.90
2022-10-28T15:11:55.651Z,23.70
2022-10-28T15:14:37.841Z,23.60
2022-10-28T15:17:16.937Z,23.80
2022-10-28T15:19:46.234Z,23.80
2022-10-28T15:22:21.668Z,23.90
2022-10-28T15:25:02.422Z,23.90
2022-10-28T15:27:32.985Z,24.00
2022-10-28T15:30:01.278Z,23.80
2022-10-28T15:32:33.538Z,23.50
2022-10-28T15:35:35.909Z,23.90
2022-10-28T15:38:35.914Z,23.90
2022-10-28T15:41:03.919Z,23.70
2022-10-28T15:43:32.733Z,23.80
2022-10-28T15:46:11.376Z,24.00
2022-10-28T15:48:39.596Z,23.60
2022-10-28T15:51:15.634Z,23.70
2022-10-28T15:53:45.495Z,23.80
2022-10-28T15:56:21.586Z,23.80
2022-10-28T15:59:04.164Z,24.10
2022-10-28T16:01:39.039Z,24.10
2022-10-28T16:04:24.695Z,24.30
2022-10-28T16:06:54.252Z,24.30
2022-10-28T16:09:30.062Z,23.80
2022-10-28T16:12:02.012Z,23.90
2022-10-28T16:14:36.308Z,23.80
2022-10-28T16:17:07.571Z,23.90
2022-10-28T16:19:39.540Z,23.90
2022-10-28T16:22:07.934Z,23.90
2022-10-28T16:24:37.267Z,23.70
2022-10-28T16:27:20.740Z,23.60
2022-10-28T16:29:48.947Z,23.80
2022-10-28T16:32:19.063Z,23.90
2022-10-28T16:34:47.089Z,23.70
2022-10-28T16:37:23.050Z,23.70
2022-10-28T16:39:52.966Z,23.50
2022-10-28T16:42:22.183Z,23.60
2022-10-28T16:44:50.424Z,23.80
2022-10-28T16:47:21.040Z,23.70
2022-10-28T16:49:54.057Z,23.70
2022-10-28T16:52:27.644Z,23.70
2022-10-28T16:54:58.317Z,23.80
2022-10-28T16:57:27.091Z,23.30
2022-10-28T16:59:55.363Z,23.70
2022-10-28T17:02:28.514Z,23.60
2022-10-28T17:04:57.840Z,23.90
2022-10-28T17:07:26.502Z,23.60
2022-10-28T17:09:56.692Z,23.70
2022-10-28T17:12:28.172Z,23.70
2022-10-28T17:14:56.197Z,23.70
2022-10-28T17:17:24.483Z,23.80
2022-10-28T17:19:52.447Z,23.70
2022-10-28T17:22:20.442Z,23.60
2022-10-28T17:24:48.375Z,23.80
2022-10-28T17:27:17.690Z,24.10
2022-10-28T17:29:46.296Z,23.80
2022-10-28T17:32:14.343Z,23.90
2022-10-28T17:34:42.398Z,23.70
2022-10-28T17:37:10.615Z,23.60
2022-10-28T17:39:38.735Z,24.00
2022-10-28T17:42:06.818Z,23.90
2022-10-28T17:44:36.517Z,23.80
2022-10-28T17:47:04.542Z,23.80
2022-10-28T17:49:34.176Z,23.60
2022-10-28T17:52:02.113Z,23.50
2022-10-28T17:54:30.091Z,23.80
2022-10-28T17:56:58.103Z,23.70
2022-10-28T17:59:26.065Z,23.40
2022-10-28T18:01:55.526Z,23.30
2022-10-28T18:04:26.255Z,23.60
2022-10-28T18:06:55.754Z,23.90
2022-10-28T18:09:24.178Z,23.60
2022-10-28T18:11:52.148Z,23.60
2022-10-28T18:14:20.878Z,23.40
2022-10-28T18:16:50.140Z,23.50
2022-10-28T18:19:19.856Z,23.10
2022-10-28T18:21:48.022Z,23.50
2022-10-28T18:24:16.554Z,23.70
2022-10-28T18:26:45.073Z,23.60
2022-10-28T18:29:13.457Z,23.50
2022-10-28T18:31:43.788Z,23.70
2022-10-28T18:34:12.169Z,23.50
2022-10-28T18:36:42.002Z,23.50
2022-10-28T18:39:10.225Z,23.50
2022-10-28T18:41:41.770Z,23.50
2022-10-28T18:44:16.928Z,23.70
2022-10-28T18:46:45.944Z,23.50
2022-10-28T18:49:14.020Z,23.70
2022-10-28T18:51:43.368Z,23.20
2022-10-28T18:54:11.387Z,23.60
2022-10-28T18:56:40.264Z,23.50
2022-10-28T18:59:09.040Z,23.30
2022-10-28T19:01:37.968Z,23.40
2022-10-28T19:04:06.307Z,23.40
2022-10-28T19:06:35.176Z,23.10
2022-10-28T19:09:05.752Z,23.30
2022-10-28T19:11:35.221Z,23.60
2022-10-28T19:14:05.948Z,23.00
2022-10-28T19:16:35.179Z,23.40
2022-10-28T19:19:05.284Z,23.40
2022-10-28T19:21:33.373Z,23.50
2022-10-28T19:24:01.440Z,23.50
2022-10-28T19:26:31.761Z,23.10
2022-10-28T19:28:59.747Z,23.40
2022-10-28T19:31:28.408Z,23.30
2022-10-28T19:33:56.556Z,23.00
2022-10-28T19:36:26.466Z,23.30
2022-10-28T19:38:55.605Z,23.20
2022-10-28T19:41:25.895Z,23.00
2022-10-28T19:43:58.475Z,23.60
2022-10-28T19:46:28.637Z,23.10
2022-10-28T19:48:58.903Z,23.30
2022-10-28T19:51:29.265Z,23.00
2022-10-28T19:53:59.956Z,23.30
2022-10-28T19:56:29.453Z,23.20
2022-10-28T19:59:00.436Z,23.00
2022-10-28T20:01:31.079Z,23.10
2022-10-28T20:03:59.404Z,23.20
2022-10-28T20:06:31.726Z,23.20
2022-10-28T20:08:59.667Z,23.10
2022-10-28T20:11:29.635Z,23.00
2022-10-28T20:14:01.744Z,23.20
2022-10-28T20:16:30.417Z,23.10
2022-10-28T20:18:59.263Z,23.10
2022-10-28T20:21:30.089Z,23.40
2022-10-28T20:23:59.088Z,23.40
2022-10-28T20:26:30.054Z,22.90
2022-10-28T20:29:01.772Z,23.50
2022-10-28T20:31:31.994Z,22.80
2022-10-28T20:34:03.600Z,23.00
2022-10-28T20:36:33.849Z,22.90
2022-10-28T20:39:04.688Z,23.10
2022-10-28T20:41:35.035Z,23.50
2022-10-28T20:44:06.277Z,22.80
2022-10-28T20:46:34.742Z,23.20
2022-10-28T20:49:03.527Z,23.00
2022-10-28T20:51:33.834Z,23.00
2022-10-28T20:54:02.483Z,23.00
2022-10-28T20:56:32.686Z,23.00
2022-10-28T20:59:01.175Z,23.10
2022-10-28T21:01:32.720Z,22.90
2022-10-28T21:04:02.734Z,23.20
2022-10-28T21:06:31.662Z,22.90
2022-10-28T21:08:59.987Z,23.00
2022-10-28T21:11:29.560Z,23.00
2022-10-28T21:13:59.539Z,22.80
2022-10-28T21:16:30.547Z,23.00
2022-10-28T21:18:59.970Z,23.00
2022-10-28T21:21:30.824Z,23.10
2022-10-28T21:23:58.743Z,23.40
2022-10-28T21:26:27.020Z,23.20
2022-10-28T21:28:56.237Z,23.10
2022-10-28T21:31:25.208Z,23.20
2022-10-28T21:33:54.593Z,23.10
2022-10-28T21:36:23.319Z,22.90
2022-10-28T21:38:55.799Z,23.10
2022-10-28T21:41:24.715Z,22.80
2022-10-28T21:43:54.698Z,23.10
2022-10-28T21:46:24.014Z,22.80
2022-10-28T21:48:52.022Z,22.90
2022-10-28T21:51:21.285Z,22.90
2022-10-28T21:53:49.215Z,22.80
2022-10-28T21:56:19.842Z,23.30
2022-10-28T21:58:49.661Z,22.90
2022-10-28T22:01:20.179Z,23.00
2022-10-28T22:03:48.306Z,23.00
2022-10-28T22:06:16.323Z,23.00
2022-10-28T22:08:46.676Z,23.00
2022-10-28T22:11:17.242Z,22.90
2022-10-28T22:13:45.606Z,22.80
2022-10-28T22:16:15.823Z,23.30
2022-10-28T22:18:44.959Z,22.80
2022-10-28T22:21:17.246Z,22.90
2022-10-28T22:23:47.018Z,22.80
2022-10-28T22:26:17.682Z,22.80
2022-10-28T22:28:46.132Z,23.00
2022-10-28T22:31:17.212Z,22.80
2022-10-28T22:36:20.672Z,22.90
2022-10-28T22:38:52.213Z,22.90
2022-10-28T22:41:22.506Z,22.90
2022-10-28T22:43:52.590Z,23.20
2022-10-28T22:46:21.742Z,22.90
2022-10-28T22:48:50.236Z,23.00
2022-10-28T22:51:18.505Z,23.00
2022-10-28T22:53:46.744Z,22.90
2022-10-28T22:56:20.082Z,22.70
2022-10-28T22:58:48.539Z,23.00
2022-10-28T23:01:19.417Z,22.80
2022-10-28T23:03:51.677Z,22.70
2022-10-28T23:06:22.406Z,22.90
2022-10-28T23:08:51.149Z,22.80
2022-10-28T23:11:22.818Z,23.10
2022-10-28T23:13:53.325Z,22.70
2022-10-28T23:16:22.634Z,22.60
2022-10-28T23:18:52.734Z,22.60
2022-10-28T23:21:23.302Z,22.90
2022-10-28T23:23:54.294Z,22.80
2022-10-28T23:26:24.266Z,22.70
2022-10-28T23:28:53.651Z,22.70
2022-10-28T23:31:23.052Z,23.00
2022-10-28T23:33:51.657Z,22.80
2022-10-28T23:36:19.606Z,22.90
2022-10-28T23:38:47.917Z,22.70
2022-10-28T23:41:18.785Z,22.80
2022-10-28T23:43:49.443Z,22.70
2022-10-28T23:46:18.453Z,22.70
2022-10-28T23:48:46.597Z,22.90
2022-10-28T23:51:14.863Z,22.60
2022-10-28T23:53:42.826Z,22.90
2022-10-28T23:56:10.777Z,22.70
2022-10-28T23:58:38.737Z,22.60
